sensor_id;sensor_type;location;lat;lon;timestamp;P1;durP1;ratioP1;P2;durP2;ratioP2
31347;SDS011;21711;49.708;18.568;2024-03-22T00:02:07;26.10;;;13.63;;
31347;SDS011;21711;49.708;18.568;2024-03-22T00:04:35;31.58;;;13.30;;
31347;SDS011;21711;49.708;18.568;2024-03-22T00:07:04;29.63;;;13.15;;
31347;SDS011;21711;49.708;18.568;2024-03-22T00:09:31;28.17;;;14.05;;
31347;SDS011;21711;49.708;18.568;2024-03-22T00:11:57;25.88;;;12.95;;
31347;SDS011;21711;49.708;18.568;2024-03-22T00:14:23;25.92;;;13.65;;
31347;SDS011;21711;49.708;18.568;2024-03-22T00:16:50;25.90;;;13.43;;
31347;SDS011;21711;49.708;18.568;2024-03-22T00:19:16;22.48;;;12.60;;
31347;SDS011;21711;49.708;18.568;2024-03-22T00:21:43;23.60;;;12.95;;
31347;SDS011;21711;49.708;18.568;2024-03-22T00:24:09;25.95;;;12.85;;
31347;SDS011;21711;49.708;18.568;2024-03-22T00:26:35;22.67;;;12.70;;
31347;SDS011;21711;49.708;18.568;2024-03-22T00:29:02;27.60;;;12.98;;
31347;SDS011;21711;49.708;18.568;2024-03-22T00:31:28;26.38;;;12.00;;
31347;SDS011;21711;49.708;18.568;2024-03-22T00:33:55;22.00;;;12.35;;
31347;SDS011;21711;49.708;18.568;2024-03-22T00:36:21;24.10;;;11.25;;
31347;SDS011;21711;49.708;18.568;2024-03-22T00:38:47;22.35;;;11.70;;
31347;SDS011;21711;49.708;18.568;2024-03-22T00:41:14;21.48;;;11.77;;
31347;SDS011;21711;49.708;18.568;2024-03-22T00:43:40;22.50;;;11.27;;
31347;SDS011;21711;49.708;18.568;2024-03-22T00:46:07;22.30;;;11.82;;
31347;SDS011;21711;49.708;18.568;2024-03-22T00:48:33;20.33;;;10.57;;
31347;SDS011;21711;49.708;18.568;2024-03-22T00:51:01;22.23;;;10.80;;
31347;SDS011;21711;49.708;18.568;2024-03-22T00:53:27;27.10;;;10.52;;
31347;SDS011;21711;49.708;18.568;2024-03-22T00:55:55;20.33;;;11.57;;
31347;SDS011;21711;49.708;18.568;2024-03-22T00:58:25;22.35;;;10.73;;
31347;SDS011;21711;49.708;18.568;2024-03-22T01:00:54;25.42;;;10.45;;
31347;SDS011;21711;49.708;18.568;2024-03-22T01:03:21;18.92;;;10.32;;
31347;SDS011;21711;49.708;18.568;2024-03-22T01:05:47;18.05;;;10.43;;
31347;SDS011;21711;49.708;18.568;2024-03-22T01:08:14;18.58;;;10.13;;
31347;SDS011;21711;49.708;18.568;2024-03-22T01:10:40;22.23;;;11.27;;
31347;SDS011;21711;49.708;18.568;2024-03-22T01:13:07;18.95;;;10.15;;
31347;SDS011;21711;49.708;18.568;2024-03-22T01:15:34;18.02;;;9.82;;
31347;SDS011;21711;49.708;18.568;2024-03-22T01:18:01;20.65;;;10.75;;
31347;SDS011;21711;49.708;18.568;2024-03-22T01:20:27;20.85;;;10.63;;
31347;SDS011;21711;49.708;18.568;2024-03-22T01:22:53;16.95;;;10.32;;
31347;SDS011;21711;49.708;18.568;2024-03-22T01:25:20;18.65;;;10.23;;
31347;SDS011;21711;49.708;18.568;2024-03-22T01:27:46;17.40;;;9.95;;
31347;SDS011;21711;49.708;18.568;2024-03-22T01:30:12;19.30;;;10.23;;
31347;SDS011;21711;49.708;18.568;2024-03-22T01:32:39;18.55;;;10.00;;
31347;SDS011;21711;49.708;18.568;2024-03-22T01:35:05;18.42;;;10.18;;
31347;SDS011;21711;49.708;18.568;2024-03-22T01:37:32;18.38;;;10.25;;
31347;SDS011;21711;49.708;18.568;2024-03-22T01:39:58;20.50;;;9.90;;
31347;SDS011;21711;49.708;18.568;2024-03-22T01:42:24;18.90;;;10.88;;
31347;SDS011;21711;49.708;18.568;2024-03-22T01:44:51;18.63;;;10.00;;
31347;SDS011;21711;49.708;18.568;2024-03-22T01:47:17;18.75;;;10.77;;
31347;SDS011;21711;49.708;18.568;2024-03-22T01:49:43;21.35;;;11.80;;
31347;SDS011;21711;49.708;18.568;2024-03-22T01:52:10;24.00;;;11.90;;
31347;SDS011;21711;49.708;18.568;2024-03-22T01:54:36;20.90;;;11.68;;
31347;SDS011;21711;49.708;18.568;2024-03-22T01:57:03;19.85;;;10.63;;
31347;SDS011;21711;49.708;18.568;2024-03-22T01:59:30;21.15;;;10.98;;
31347;SDS011;21711;49.708;18.568;2024-03-22T02:01:58;17.20;;;9.65;;
31347;SDS011;21711;49.708;18.568;2024-03-22T02:04:24;19.15;;;10.18;;
31347;SDS011;21711;49.708;18.568;2024-03-22T02:06:51;19.00;;;11.00;;
31347;SDS011;21711;49.708;18.568;2024-03-22T02:09:17;24.33;;;10.90;;
31347;SDS011;21711;49.708;18.568;2024-03-22T02:11:46;19.25;;;10.95;;
31347;SDS011;21711;49.708;18.568;2024-03-22T02:14:13;20.85;;;10.52;;
31347;SDS011;21711;49.708;18.568;2024-03-22T02:16:40;23.42;;;10.73;;
31347;SDS011;21711;49.708;18.568;2024-03-22T02:19:07;21.05;;;11.27;;
31347;SDS011;21711;49.708;18.568;2024-03-22T02:21:34;19.42;;;10.60;;
31347;SDS011;21711;49.708;18.568;2024-03-22T02:24:00;17.40;;;10.95;;
31347;SDS011;21711;49.708;18.568;2024-03-22T02:26:27;18.65;;;10.32;;
31347;SDS011;21711;49.708;18.568;2024-03-22T02:28:53;23.13;;;11.10;;
31347;SDS011;21711;49.708;18.568;2024-03-22T02:31:19;18.65;;;11.27;;
31347;SDS011;21711;49.708;18.568;2024-03-22T02:33:46;18.65;;;10.85;;
31347;SDS011;21711;49.708;18.568;2024-03-22T02:36:12;22.27;;;11.10;;
31347;SDS011;21711;49.708;18.568;2024-03-22T02:38:38;19.30;;;10.27;;
31347;SDS011;21711;49.708;18.568;2024-03-22T02:41:05;22.23;;;10.82;;
31347;SDS011;21711;49.708;18.568;2024-03-22T02:43:31;18.10;;;10.35;;
31347;SDS011;21711;49.708;18.568;2024-03-22T02:45:57;21.63;;;11.38;;
31347;SDS011;21711;49.708;18.568;2024-03-22T02:48:23;18.42;;;11.35;;
31347;SDS011;21711;49.708;18.568;2024-03-22T02:50:54;17.75;;;9.70;;
31347;SDS011;21711;49.708;18.568;2024-03-22T02:53:21;20.75;;;10.40;;
31347;SDS011;21711;49.708;18.568;2024-03-22T02:55:48;21.80;;;10.65;;
31347;SDS011;21711;49.708;18.568;2024-03-22T02:58:14;19.05;;;11.40;;
31347;SDS011;21711;49.708;18.568;2024-03-22T03:00:42;22.98;;;11.48;;
31347;SDS011;21711;49.708;18.568;2024-03-22T03:03:08;21.27;;;11.38;;
31347;SDS011;21711;49.708;18.568;2024-03-22T03:05:35;22.00;;;11.40;;
31347;SDS011;21711;49.708;18.568;2024-03-22T03:08:01;24.83;;;11.45;;
31347;SDS011;21711;49.708;18.568;2024-03-22T03:10:29;21.20;;;12.18;;
31347;SDS011;21711;49.708;18.568;2024-03-22T03:12:55;24.20;;;12.15;;
31347;SDS011;21711;49.708;18.568;2024-03-22T03:15:22;19.92;;;11.52;;
31347;SDS011;21711;49.708;18.568;2024-03-22T03:17:48;20.50;;;11.00;;
31347;SDS011;21711;49.708;18.568;2024-03-22T03:20:14;20.17;;;11.05;;
31347;SDS011;21711;49.708;18.568;2024-03-22T03:22:41;20.95;;;10.90;;
31347;SDS011;21711;49.708;18.568;2024-03-22T03:25:07;22.55;;;11.75;;
31347;SDS011;21711;49.708;18.568;2024-03-22T03:27:34;22.05;;;11.85;;
31347;SDS011;21711;49.708;18.568;2024-03-22T03:30:00;23.60;;;12.50;;
31347;SDS011;21711;49.708;18.568;2024-03-22T03:32:28;25.35;;;12.20;;
31347;SDS011;21711;49.708;18.568;2024-03-22T03:34:54;20.65;;;11.60;;
31347;SDS011;21711;49.708;18.568;2024-03-22T03:37:21;21.58;;;11.85;;
31347;SDS011;21711;49.708;18.568;2024-03-22T03:39:47;23.20;;;11.60;;
31347;SDS011;21711;49.708;18.568;2024-03-22T03:42:13;22.73;;;11.75;;
31347;SDS011;21711;49.708;18.568;2024-03-22T03:44:40;21.23;;;11.82;;
31347;SDS011;21711;49.708;18.568;2024-03-22T03:47:07;23.40;;;12.63;;
31347;SDS011;21711;49.708;18.568;2024-03-22T03:49:33;22.55;;;12.05;;
31347;SDS011;21711;49.708;18.568;2024-03-22T03:52:00;20.70;;;12.25;;
31347;SDS011;21711;49.708;18.568;2024-03-22T03:54:26;28.40;;;13.05;;
31347;SDS011;21711;49.708;18.568;2024-03-22T03:56:53;24.70;;;12.50;;
31347;SDS011;21711;49.708;18.568;2024-03-22T03:59:19;23.13;;;11.77;;
31347;SDS011;21711;49.708;18.568;2024-03-22T04:01:46;24.40;;;12.15;;
31347;SDS011;21711;49.708;18.568;2024-03-22T04:04:13;21.05;;;10.93;;
31347;SDS011;21711;49.708;18.568;2024-03-22T04:06:39;22.27;;;12.13;;
31347;SDS011;21711;49.708;18.568;2024-03-22T04:09:05;22.48;;;11.52;;
31347;SDS011;21711;49.708;18.568;2024-03-22T04:11:32;22.55;;;12.27;;
31347;SDS011;21711;49.708;18.568;2024-03-22T04:13:58;28.27;;;13.60;;
31347;SDS011;21711;49.708;18.568;2024-03-22T04:16:24;24.77;;;12.30;;
31347;SDS011;21711;49.708;18.568;2024-03-22T04:18:51;26.02;;;13.25;;
31347;SDS011;21711;49.708;18.568;2024-03-22T04:21:17;23.35;;;12.05;;
31347;SDS011;21711;49.708;18.568;2024-03-22T04:23:43;28.15;;;12.60;;
31347;SDS011;21711;49.708;18.568;2024-03-22T04:26:10;26.35;;;12.40;;
31347;SDS011;21711;49.708;18.568;2024-03-22T04:28:36;22.80;;;12.02;;
31347;SDS011;21711;49.708;18.568;2024-03-22T04:31:03;27.50;;;13.65;;
31347;SDS011;21711;49.708;18.568;2024-03-22T04:33:34;25.02;;;12.65;;
31347;SDS011;21711;49.708;18.568;2024-03-22T04:36:02;25.95;;;12.88;;
31347;SDS011;21711;49.708;18.568;2024-03-22T04:38:29;25.13;;;14.05;;
31347;SDS011;21711;49.708;18.568;2024-03-22T04:40:56;22.80;;;12.32;;
31347;SDS011;21711;49.708;18.568;2024-03-22T04:43:23;22.85;;;12.13;;
31347;SDS011;21711;49.708;18.568;2024-03-22T04:45:50;28.50;;;11.98;;
31347;SDS011;21711;49.708;18.568;2024-03-22T04:48:18;25.88;;;13.55;;
31347;SDS011;21711;49.708;18.568;2024-03-22T04:50:48;25.02;;;12.57;;
31347;SDS011;21711;49.708;18.568;2024-03-22T04:53:16;29.05;;;14.05;;
31347;SDS011;21711;49.708;18.568;2024-03-22T04:55:44;23.92;;;13.50;;
31347;SDS011;21711;49.708;18.568;2024-03-22T04:58:20;22.58;;;12.15;;
31347;SDS011;21711;49.708;18.568;2024-03-22T05:00:48;24.50;;;13.10;;
31347;SDS011;21711;49.708;18.568;2024-03-22T05:03:15;32.33;;;14.00;;
31347;SDS011;21711;49.708;18.568;2024-03-22T05:05:42;26.48;;;12.73;;
31347;SDS011;21711;49.708;18.568;2024-03-22T05:08:08;26.27;;;13.93;;
31347;SDS011;21711;49.708;18.568;2024-03-22T05:10:35;31.95;;;14.05;;
31347;SDS011;21711;49.708;18.568;2024-03-22T05:13:02;24.92;;;13.35;;
31347;SDS011;21711;49.708;18.568;2024-03-22T05:15:28;26.65;;;12.00;;
31347;SDS011;21711;49.708;18.568;2024-03-22T05:17:56;26.23;;;13.43;;
31347;SDS011;21711;49.708;18.568;2024-03-22T05:20:23;26.85;;;13.57;;
31347;SDS011;21711;49.708;18.568;2024-03-22T05:22:50;22.38;;;12.75;;
31347;SDS011;21711;49.708;18.568;2024-03-22T05:25:16;25.27;;;12.60;;
31347;SDS011;21711;49.708;18.568;2024-03-22T05:27:43;23.58;;;11.95;;
31347;SDS011;21711;49.708;18.568;2024-03-22T05:30:11;21.30;;;11.63;;
31347;SDS011;21711;49.708;18.568;2024-03-22T05:32:39;24.10;;;12.13;;
31347;SDS011;21711;49.708;18.568;2024-03-22T05:35:06;31.58;;;12.98;;
31347;SDS011;21711;49.708;18.568;2024-03-22T05:37:34;28.45;;;12.40;;
31347;SDS011;21711;49.708;18.568;2024-03-22T05:40:01;26.50;;;12.25;;
31347;SDS011;21711;49.708;18.568;2024-03-22T05:42:30;26.23;;;11.95;;
31347;SDS011;21711;49.708;18.568;2024-03-22T05:44:56;22.83;;;11.38;;
31347;SDS011;21711;49.708;18.568;2024-03-22T05:47:23;23.75;;;12.27;;
31347;SDS011;21711;49.708;18.568;2024-03-22T05:49:49;23.92;;;11.77;;
31347;SDS011;21711;49.708;18.568;2024-03-22T05:52:17;27.55;;;12.43;;
31347;SDS011;21711;49.708;18.568;2024-03-22T05:54:44;26.08;;;13.52;;
31347;SDS011;21711;49.708;18.568;2024-03-22T05:57:11;24.85;;;12.23;;
31347;SDS011;21711;49.708;18.568;2024-03-22T05:59:38;28.27;;;12.57;;
31347;SDS011;21711;49.708;18.568;2024-03-22T06:02:04;22.58;;;11.38;;
31347;SDS011;21711;49.708;18.568;2024-03-22T06:04:31;29.40;;;13.57;;
31347;SDS011;21711;49.708;18.568;2024-03-22T06:06:58;25.27;;;13.07;;
31347;SDS011;21711;49.708;18.568;2024-03-22T06:09:26;23.35;;;12.52;;
31347;SDS011;21711;49.708;18.568;2024-03-22T06:12:12;23.48;;;13.25;;
31347;SDS011;21711;49.708;18.568;2024-03-22T06:14:42;27.17;;;14.55;;
31347;SDS011;21711;49.708;18.568;2024-03-22T06:17:08;29.03;;;15.03;;
31347;SDS011;21711;49.708;18.568;2024-03-22T06:19:35;22.98;;;12.95;;
31347;SDS011;21711;49.708;18.568;2024-03-22T06:22:02;24.42;;;12.80;;
31347;SDS011;21711;49.708;18.568;2024-03-22T06:24:29;22.92;;;12.95;;
31347;SDS011;21711;49.708;18.568;2024-03-22T06:26:55;28.30;;;13.30;;
31347;SDS011;21711;49.708;18.568;2024-03-22T06:29:22;25.27;;;12.88;;
31347;SDS011;21711;49.708;18.568;2024-03-22T06:31:48;24.85;;;12.82;;
31347;SDS011;21711;49.708;18.568;2024-03-22T06:34:15;24.27;;;12.48;;
31347;SDS011;21711;49.708;18.568;2024-03-22T06:36:42;21.42;;;11.90;;
31347;SDS011;21711;49.708;18.568;2024-03-22T06:39:08;22.50;;;13.52;;
31347;SDS011;21711;49.708;18.568;2024-03-22T06:41:35;24.17;;;12.93;;
31347;SDS011;21711;49.708;18.568;2024-03-22T06:44:02;28.05;;;13.48;;
31347;SDS011;21711;49.708;18.568;2024-03-22T06:46:29;24.08;;;12.98;;
31347;SDS011;21711;49.708;18.568;2024-03-22T06:48:55;24.90;;;12.90;;
31347;SDS011;21711;49.708;18.568;2024-03-22T06:51:23;25.08;;;12.60;;
31347;SDS011;21711;49.708;18.568;2024-03-22T06:53:49;27.85;;;13.05;;
31347;SDS011;21711;49.708;18.568;2024-03-22T06:56:16;25.40;;;12.75;;
31347;SDS011;21711;49.708;18.568;2024-03-22T06:58:44;24.48;;;13.20;;
31347;SDS011;21711;49.708;18.568;2024-03-22T07:01:10;23.48;;;13.05;;
31347;SDS011;21711;49.708;18.568;2024-03-22T07:03:37;26.38;;;14.55;;
31347;SDS011;21711;49.708;18.568;2024-03-22T07:06:03;24.92;;;12.98;;
31347;SDS011;21711;49.708;18.568;2024-03-22T07:08:32;26.40;;;13.35;;
31347;SDS011;21711;49.708;18.568;2024-03-22T07:10:59;21.40;;;12.48;;
31347;SDS011;21711;49.708;18.568;2024-03-22T07:13:30;24.17;;;12.13;;
31347;SDS011;21711;49.708;18.568;2024-03-22T07:15:56;22.30;;;12.18;;
31347;SDS011;21711;49.708;18.568;2024-03-22T07:18:22;25.13;;;13.02;;
31347;SDS011;21711;49.708;18.568;2024-03-22T07:20:48;22.83;;;12.50;;
31347;SDS011;21711;49.708;18.568;2024-03-22T07:23:15;26.50;;;11.75;;
31347;SDS011;21711;49.708;18.568;2024-03-22T07:25:41;21.35;;;12.10;;
31347;SDS011;21711;49.708;18.568;2024-03-22T07:28:14;22.92;;;11.20;;
31347;SDS011;21711;49.708;18.568;2024-03-22T07:30:41;21.05;;;10.18;;
31347;SDS011;21711;49.708;18.568;2024-03-22T07:33:09;20.02;;;11.85;;
31347;SDS011;21711;49.708;18.568;2024-03-22T07:35:42;19.85;;;10.57;;
31347;SDS011;21711;49.708;18.568;2024-03-22T07:38:08;25.45;;;12.05;;
31347;SDS011;21711;49.708;18.568;2024-03-22T07:40:36;22.45;;;11.45;;
31347;SDS011;21711;49.708;18.568;2024-03-22T07:43:02;25.33;;;11.32;;
31347;SDS011;21711;49.708;18.568;2024-03-22T07:45:32;21.90;;;10.63;;
31347;SDS011;21711;49.708;18.568;2024-03-22T07:48:00;21.10;;;10.77;;
31347;SDS011;21711;49.708;18.568;2024-03-22T07:50:27;22.25;;;10.10;;
31347;SDS011;21711;49.708;18.568;2024-03-22T07:52:53;21.52;;;11.23;;
31347;SDS011;21711;49.708;18.568;2024-03-22T07:55:19;22.73;;;11.48;;
31347;SDS011;21711;49.708;18.568;2024-03-22T07:57:48;21.40;;;10.85;;
31347;SDS011;21711;49.708;18.568;2024-03-22T08:00:15;17.90;;;10.02;;
31347;SDS011;21711;49.708;18.568;2024-03-22T08:02:41;19.63;;;9.77;;
31347;SDS011;21711;49.708;18.568;2024-03-22T08:05:08;19.83;;;10.88;;
31347;SDS011;21711;49.708;18.568;2024-03-22T08:07:34;19.58;;;8.70;;
31347;SDS011;21711;49.708;18.568;2024-03-22T08:10:01;18.67;;;9.38;;
31347;SDS011;21711;49.708;18.568;2024-03-22T08:12:28;15.80;;;8.45;;
31347;SDS011;21711;49.708;18.568;2024-03-22T08:14:54;19.67;;;8.38;;
31347;SDS011;21711;49.708;18.568;2024-03-22T08:17:21;16.65;;;8.15;;
31347;SDS011;21711;49.708;18.568;2024-03-22T08:19:47;15.32;;;8.10;;
31347;SDS011;21711;49.708;18.568;2024-03-22T08:22:14;17.65;;;8.55;;
31347;SDS011;21711;49.708;18.568;2024-03-22T08:24:40;14.45;;;7.30;;
31347;SDS011;21711;49.708;18.568;2024-03-22T08:27:07;21.60;;;7.85;;
31347;SDS011;21711;49.708;18.568;2024-03-22T08:29:33;14.57;;;7.60;;
31347;SDS011;21711;49.708;18.568;2024-03-22T08:31:59;14.68;;;7.82;;
31347;SDS011;21711;49.708;18.568;2024-03-22T08:34:28;13.65;;;6.95;;
31347;SDS011;21711;49.708;18.568;2024-03-22T08:36:54;13.43;;;7.30;;
31347;SDS011;21711;49.708;18.568;2024-03-22T08:39:21;15.20;;;7.45;;
31347;SDS011;21711;49.708;18.568;2024-03-22T08:41:47;14.32;;;6.30;;
31347;SDS011;21711;49.708;18.568;2024-03-22T08:44:14;19.63;;;6.93;;
31347;SDS011;21711;49.708;18.568;2024-03-22T08:46:41;12.70;;;6.68;;
31347;SDS011;21711;49.708;18.568;2024-03-22T08:49:07;12.30;;;6.85;;
31347;SDS011;21711;49.708;18.568;2024-03-22T08:51:33;16.58;;;7.38;;
31347;SDS011;21711;49.708;18.568;2024-03-22T08:54:00;11.80;;;5.95;;
31347;SDS011;21711;49.708;18.568;2024-03-22T08:56:26;13.85;;;6.50;;
31347;SDS011;21711;49.708;18.568;2024-03-22T08:58:52;15.48;;;6.68;;
31347;SDS011;21711;49.708;18.568;2024-03-22T09:01:19;11.00;;;6.03;;
31347;SDS011;21711;49.708;18.568;2024-03-22T09:03:45;11.43;;;5.90;;
31347;SDS011;21711;49.708;18.568;2024-03-22T09:06:15;13.38;;;5.95;;
31347;SDS011;21711;49.708;18.568;2024-03-22T09:08:41;13.52;;;6.35;;
31347;SDS011;21711;49.708;18.568;2024-03-22T09:11:07;14.38;;;6.13;;
31347;SDS011;21711;49.708;18.568;2024-03-22T09:13:34;11.27;;;6.10;;
31347;SDS011;21711;49.708;18.568;2024-03-22T09:16:00;11.57;;;6.35;;
31347;SDS011;21711;49.708;18.568;2024-03-22T09:18:28;15.07;;;6.57;;
31347;SDS011;21711;49.708;18.568;2024-03-22T09:20:54;11.93;;;6.68;;
31347;SDS011;21711;49.708;18.568;2024-03-22T09:23:21;12.40;;;6.35;;
31347;SDS011;21711;49.708;18.568;2024-03-22T09:25:48;14.20;;;6.78;;
31347;SDS011;21711;49.708;18.568;2024-03-22T09:28:14;14.15;;;6.45;;
31347;SDS011;21711;49.708;18.568;2024-03-22T09:30:41;14.15;;;7.20;;
31347;SDS011;21711;49.708;18.568;2024-03-22T09:33:08;9.95;;;5.40;;
31347;SDS011;21711;49.708;18.568;2024-03-22T09:35:35;13.38;;;6.18;;
31347;SDS011;21711;49.708;18.568;2024-03-22T09:38:02;12.07;;;6.10;;
31347;SDS011;21711;49.708;18.568;2024-03-22T09:40:28;12.00;;;7.10;;
31347;SDS011;21711;49.708;18.568;2024-03-22T09:42:56;10.68;;;6.00;;
31347;SDS011;21711;49.708;18.568;2024-03-22T09:45:31;15.85;;;6.97;;
31347;SDS011;21711;49.708;18.568;2024-03-22T09:47:58;14.10;;;6.75;;
31347;SDS011;21711;49.708;18.568;2024-03-22T09:50:26;12.07;;;6.35;;
31347;SDS011;21711;49.708;18.568;2024-03-22T09:52:52;20.42;;;6.95;;
31347;SDS011;21711;49.708;18.568;2024-03-22T09:55:22;15.30;;;6.97;;
31347;SDS011;21711;49.708;18.568;2024-03-22T09:57:49;13.60;;;6.25;;
31347;SDS011;21711;49.708;18.568;2024-03-22T10:00:19;13.20;;;6.97;;
31347;SDS011;21711;49.708;18.568;2024-03-22T10:02:51;13.30;;;6.85;;
31347;SDS011;21711;49.708;18.568;2024-03-22T10:05:19;12.38;;;6.43;;
31347;SDS011;21711;49.708;18.568;2024-03-22T10:07:45;16.13;;;7.43;;
31347;SDS011;21711;49.708;18.568;2024-03-22T10:10:11;13.10;;;6.90;;
31347;SDS011;21711;49.708;18.568;2024-03-22T10:12:39;13.45;;;6.80;;
31347;SDS011;21711;49.708;18.568;2024-03-22T10:15:06;12.00;;;6.63;;
31347;SDS011;21711;49.708;18.568;2024-03-22T10:17:37;13.27;;;7.38;;
31347;SDS011;21711;49.708;18.568;2024-03-22T10:20:03;14.63;;;7.25;;
31347;SDS011;21711;49.708;18.568;2024-03-22T10:22:35;11.25;;;6.80;;
31347;SDS011;21711;49.708;18.568;2024-03-22T10:25:01;15.85;;;8.45;;
31347;SDS011;21711;49.708;18.568;2024-03-22T10:27:29;13.35;;;7.18;;
31347;SDS011;21711;49.708;18.568;2024-03-22T10:29:56;13.70;;;7.82;;
31347;SDS011;21711;49.708;18.568;2024-03-22T10:32:22;14.27;;;8.10;;
31347;SDS011;21711;49.708;18.568;2024-03-22T10:34:50;16.95;;;7.28;;
31347;SDS011;21711;49.708;18.568;2024-03-22T10:37:16;13.77;;;7.03;;
31347;SDS011;21711;49.708;18.568;2024-03-22T10:39:43;15.50;;;7.80;;
31347;SDS011;21711;49.708;18.568;2024-03-22T10:42:11;15.98;;;8.25;;
31347;SDS011;21711;49.708;18.568;2024-03-22T10:44:39;14.30;;;7.72;;
31347;SDS011;21711;49.708;18.568;2024-03-22T10:47:06;15.07;;;8.35;;
31347;SDS011;21711;49.708;18.568;2024-03-22T10:49:36;14.07;;;8.07;;
31347;SDS011;21711;49.708;18.568;2024-03-22T10:52:04;18.58;;;8.73;;
31347;SDS011;21711;49.708;18.568;2024-03-22T10:54:36;16.17;;;9.43;;
31347;SDS011;21711;49.708;18.568;2024-03-22T10:57:07;14.75;;;8.82;;
31347;SDS011;21711;49.708;18.568;2024-03-22T10:59:41;14.60;;;8.75;;
31347;SDS011;21711;49.708;18.568;2024-03-22T11:02:10;16.40;;;9.52;;
31347;SDS011;21711;49.708;18.568;2024-03-22T11:04:37;15.50;;;8.98;;
31347;SDS011;21711;49.708;18.568;2024-03-22T11:07:03;17.60;;;9.90;;
31347;SDS011;21711;49.708;18.568;2024-03-22T11:09:30;14.48;;;8.57;;
31347;SDS011;21711;49.708;18.568;2024-03-22T11:11:56;14.35;;;8.13;;
31347;SDS011;21711;49.708;18.568;2024-03-22T11:14:24;15.45;;;8.68;;
31347;SDS011;21711;49.708;18.568;2024-03-22T11:16:51;14.68;;;7.93;;
31347;SDS011;21711;49.708;18.568;2024-03-22T11:19:18;14.68;;;8.95;;
31347;SDS011;21711;49.708;18.568;2024-03-22T11:21:45;14.00;;;8.95;;
31347;SDS011;21711;49.708;18.568;2024-03-22T11:24:11;17.95;;;9.02;;
31347;SDS011;21711;49.708;18.568;2024-03-22T11:26:37;17.05;;;8.88;;
31347;SDS011;21711;49.708;18.568;2024-03-22T11:29:04;16.85;;;8.80;;
31347;SDS011;21711;49.708;18.568;2024-03-22T11:31:30;12.23;;;7.65;;
31347;SDS011;21711;49.708;18.568;2024-03-22T11:33:58;16.52;;;8.82;;
31347;SDS011;21711;49.708;18.568;2024-03-22T11:36:25;13.25;;;8.90;;
31347;SDS011;21711;49.708;18.568;2024-03-22T11:38:52;15.60;;;8.43;;
31347;SDS011;21711;49.708;18.568;2024-03-22T11:41:21;15.20;;;8.60;;
31347;SDS011;21711;49.708;18.568;2024-03-22T11:43:55;15.25;;;9.32;;
31347;SDS011;21711;49.708;18.568;2024-03-22T11:46:24;15.98;;;9.35;;
31347;SDS011;21711;49.708;18.568;2024-03-22T11:48:55;15.70;;;8.25;;
31347;SDS011;21711;49.708;18.568;2024-03-22T11:51:22;13.63;;;9.10;;
31347;SDS011;21711;49.708;18.568;2024-03-22T11:53:49;14.57;;;8.75;;
31347;SDS011;21711;49.708;18.568;2024-03-22T11:56:21;14.48;;;9.27;;
31347;SDS011;21711;49.708;18.568;2024-03-22T11:58:48;17.35;;;10.27;;
31347;SDS011;21711;49.708;18.568;2024-03-22T12:01:15;16.90;;;9.65;;
31347;SDS011;21711;49.708;18.568;2024-03-22T12:03:45;14.80;;;9.45;;
31347;SDS011;21711;49.708;18.568;2024-03-22T12:06:15;18.20;;;10.18;;
31347;SDS011;21711;49.708;18.568;2024-03-22T12:08:41;17.33;;;9.93;;
31347;SDS011;21711;49.708;18.568;2024-03-22T12:11:08;14.50;;;9.75;;
31347;SDS011;21711;49.708;18.568;2024-03-22T12:13:35;20.63;;;9.25;;
31347;SDS011;21711;49.708;18.568;2024-03-22T12:16:05;18.23;;;10.77;;
31347;SDS011;21711;49.708;18.568;2024-03-22T12:18:35;26.05;;;10.80;;
31347;SDS011;21711;49.708;18.568;2024-03-22T12:21:01;16.88;;;10.07;;
31347;SDS011;21711;49.708;18.568;2024-03-22T12:23:28;15.43;;;9.32;;
31347;SDS011;21711;49.708;18.568;2024-03-22T12:25:54;16.98;;;9.85;;
31347;SDS011;21711;49.708;18.568;2024-03-22T12:28:21;17.52;;;10.55;;
31347;SDS011;21711;49.708;18.568;2024-03-22T12:30:48;18.58;;;9.48;;
31347;SDS011;21711;49.708;18.568;2024-03-22T12:33:15;20.95;;;12.05;;
31347;SDS011;21711;49.708;18.568;2024-03-22T12:35:42;14.90;;;8.15;;
31347;SDS011;21711;49.708;18.568;2024-03-22T12:38:08;12.00;;;6.88;;
31347;SDS011;21711;49.708;18.568;2024-03-22T12:40:37;10.80;;;6.47;;
31347;SDS011;21711;49.708;18.568;2024-03-22T12:43:04;11.13;;;6.50;;
31347;SDS011;21711;49.708;18.568;2024-03-22T12:45:31;10.18;;;6.38;;
31347;SDS011;21711;49.708;18.568;2024-03-22T12:47:58;8.75;;;5.85;;
31347;SDS011;21711;49.708;18.568;2024-03-22T12:50:24;10.38;;;5.60;;
31347;SDS011;21711;49.708;18.568;2024-03-22T12:52:52;14.90;;;5.88;;
31347;SDS011;21711;49.708;18.568;2024-03-22T12:55:18;12.70;;;6.30;;
31347;SDS011;21711;49.708;18.568;2024-03-22T12:57:45;8.88;;;6.13;;
31347;SDS011;21711;49.708;18.568;2024-03-22T13:00:12;9.88;;;6.07;;
31347;SDS011;21711;49.708;18.568;2024-03-22T13:02:44;9.45;;;5.97;;
31347;SDS011;21711;49.708;18.568;2024-03-22T13:05:12;8.73;;;5.78;;
31347;SDS011;21711;49.708;18.568;2024-03-22T13:07:38;12.02;;;6.55;;
31347;SDS011;21711;49.708;18.568;2024-03-22T13:10:05;8.43;;;4.82;;
31347;SDS011;21711;49.708;18.568;2024-03-22T13:12:33;8.95;;;5.00;;
31347;SDS011;21711;49.708;18.568;2024-03-22T13:15:00;6.32;;;4.43;;
31347;SDS011;21711;49.708;18.568;2024-03-22T13:17:28;6.32;;;4.95;;
31347;SDS011;21711;49.708;18.568;2024-03-22T13:19:54;7.90;;;5.80;;
31347;SDS011;21711;49.708;18.568;2024-03-22T13:22:20;9.70;;;5.85;;
31347;SDS011;21711;49.708;18.568;2024-03-22T13:24:47;11.13;;;5.13;;
31347;SDS011;21711;49.708;18.568;2024-03-22T13:27:16;9.57;;;5.70;;
31347;SDS011;21711;49.708;18.568;2024-03-22T13:29:43;6.18;;;4.35;;
31347;SDS011;21711;49.708;18.568;2024-03-22T13:32:09;9.10;;;4.82;;
31347;SDS011;21711;49.708;18.568;2024-03-22T13:34:36;8.52;;;5.25;;
31347;SDS011;21711;49.708;18.568;2024-03-22T13:37:03;6.80;;;4.63;;
31347;SDS011;21711;49.708;18.568;2024-03-22T13:39:29;7.10;;;4.60;;
31347;SDS011;21711;49.708;18.568;2024-03-22T13:41:56;9.63;;;4.57;;
31347;SDS011;21711;49.708;18.568;2024-03-22T13:44:23;8.18;;;5.03;;
31347;SDS011;21711;49.708;18.568;2024-03-22T13:46:50;8.25;;;4.32;;
31347;SDS011;21711;49.708;18.568;2024-03-22T13:49:17;9.23;;;4.65;;
31347;SDS011;21711;49.708;18.568;2024-03-22T13:51:49;8.07;;;4.30;;
31347;SDS011;21711;49.708;18.568;2024-03-22T13:54:15;7.18;;;4.10;;
31347;SDS011;21711;49.708;18.568;2024-03-22T13:56:42;7.05;;;4.28;;
31347;SDS011;21711;49.708;18.568;2024-03-22T13:59:08;7.28;;;4.07;;
31347;SDS011;21711;49.708;18.568;2024-03-22T14:01:35;8.43;;;4.38;;
31347;SDS011;21711;49.708;18.568;2024-03-22T14:04:05;8.70;;;4.57;;
31347;SDS011;21711;49.708;18.568;2024-03-22T14:06:32;6.65;;;3.95;;
31347;SDS011;21711;49.708;18.568;2024-03-22T14:08:58;8.82;;;4.20;;
31347;SDS011;21711;49.708;18.568;2024-03-22T14:13:59;7.78;;;3.70;;
31347;SDS011;21711;49.708;18.568;2024-03-22T14:16:25;7.27;;;4.43;;
31347;SDS011;21711;49.708;18.568;2024-03-22T14:18:52;8.95;;;5.05;;